createdAt,value
2022-12-23T00:01:55.966Z,9.60
2022-12-23T00:04:41.248Z,9.60
2022-12-23T00:07:26.633Z,9.60
2022-12-23T00:10:12.306Z,9.50
2022-12-23T00:13:16.157Z,9.60
2022-12-23T00:16:03.283Z,9.60
2022-12-23T00:18:48.806Z,9.60
2022-12-23T00:21:35.779Z,9.60
2022-12-23T00:24:20.834Z,9.60
2022-12-23T00:27:06.360Z,9.70
2022-12-23T00:29:51.681Z,9.60
2022-12-23T00:32:37.137Z,9.60
2022-12-23T00:35:22.606Z,9.60
2022-12-23T00:38:07.703Z,9.60
2022-12-23T00:41:11.579Z,9.60
2022-12-23T00:43:57.196Z,9.60
2022-12-23T00:46:42.314Z,9.60
2022-12-23T00:49:42.596Z,9.60
2022-12-23T00:52:27.672Z,9.50
2022-12-23T00:55:13.076Z,9.60
2022-12-23T00:57:58.809Z,9.60
2022-12-23T01:01:03.722Z,9.50
2022-12-23T01:04:07.492Z,9.60
2022-12-23T01:06:52.723Z,9.60
2022-12-23T01:09:38.223Z,9.50
2022-12-23T01:12:23.750Z,9.50
2022-12-23T01:15:09.523Z,9.50
2022-12-23T01:17:54.707Z,9.50
2022-12-23T01:20:40.878Z,9.50
2022-12-23T01:23:25.819Z,9.60
2022-12-23T01:26:12.203Z,9.50
2022-12-23T01:28:58.082Z,9.60
2022-12-23T01:31:43.409Z,9.50
2022-12-23T01:34:36.014Z,9.60
2022-12-23T01:37:22.048Z,9.50
2022-12-23T01:40:08.996Z,9.50
2022-12-23T01:42:54.379Z,9.50
2022-12-23T01:45:39.707Z,9.50
2022-12-23T01:48:27.386Z,9.50
2022-12-23T01:51:18.450Z,9.50
2022-12-23T01:54:03.860Z,9.50
2022-12-23T01:56:49.183Z,9.60
2022-12-23T01:59:53.135Z,9.50
2022-12-23T02:02:59.181Z,9.50
2022-12-23T02:05:48.912Z,9.40
2022-12-23T02:08:52.599Z,9.40
2022-12-23T02:11:58.947Z,9.30
2022-12-23T02:15:17.327Z,9.40
2022-12-23T02:18:40.436Z,9.40
2022-12-23T02:21:38.081Z,9.30
2022-12-23T02:24:23.800Z,9.30
2022-12-23T02:27:13.800Z,9.40
2022-12-23T02:30:24.094Z,9.40
2022-12-23T02:33:19.467Z,9.40
2022-12-23T02:36:20.188Z,9.40
2022-12-23T02:39:34.531Z,9.50
2022-12-23T02:42:28.290Z,9.40
2022-12-23T02:45:27.115Z,9.40
2022-12-23T02:48:45.391Z,9.40
2022-12-23T02:51:35.849Z,9.40
2022-12-23T02:54:28.739Z,9.40
2022-12-23T02:57:14.898Z,9.50
2022-12-23T03:00:01.276Z,9.50
2022-12-23T03:02:46.470Z,9.50
2022-12-23T03:05:41.132Z,9.50
2022-12-23T03:08:37.180Z,9.50
2022-12-23T03:11:25.207Z,9.50
2022-12-23T03:14:19.391Z,9.50
2022-12-23T03:17:37.823Z,9.50
2022-12-23T03:20:38.904Z,9.50
2022-12-23T03:23:29.843Z,9.50
2022-12-23T03:26:32.821Z,9.50
2022-12-23T03:29:37.278Z,9.60
2022-12-23T03:32:24.601Z,9.50
2022-12-23T03:35:13.692Z,9.50
2022-12-23T03:38:00.561Z,9.50
2022-12-23T03:40:52.857Z,9.60
2022-12-23T03:43:50.597Z,9.50
2022-12-23T03:46:54.962Z,9.50
2022-12-23T03:49:48.029Z,9.50
2022-12-23T03:52:39.396Z,9.50
2022-12-23T03:55:31.721Z,9.50
2022-12-23T03:58:57.918Z,9.50
2022-12-23T04:02:09.004Z,9.50
2022-12-23T04:05:11.154Z,9.50
2022-12-23T04:08:18.612Z,9.50
2022-12-23T04:11:05.032Z,9.50
2022-12-23T04:13:50.263Z,9.50
2022-12-23T04:16:35.661Z,9.50
2022-12-23T04:19:20.910Z,9.50
2022-12-23T04:22:06.134Z,9.50
2022-12-23T04:24:51.623Z,9.50
2022-12-23T04:27:37.262Z,9.60
2022-12-23T04:30:23.198Z,9.60
2022-12-23T04:33:11.613Z,9.60
2022-12-23T04:35:59.024Z,9.60
2022-12-23T04:38:44.121Z,9.60
2022-12-23T04:41:29.435Z,9.60
2022-12-23T04:44:14.903Z,9.50
2022-12-23T04:47:00.395Z,9.50
2022-12-23T04:49:45.603Z,9.50
2022-12-23T04:52:30.998Z,9.50
2022-12-23T04:55:16.169Z,9.50
2022-12-23T04:58:01.545Z,9.50
2022-12-23T05:00:46.806Z,9.50
2022-12-23T05:03:32.338Z,9.50
2022-12-23T05:06:17.627Z,9.50
2022-12-23T05:09:03.883Z,9.50
2022-12-23T05:11:49.179Z,9.50
2022-12-23T05:14:34.662Z,9.60
2022-12-23T05:17:20.007Z,9.50
2022-12-23T05:20:06.215Z,9.60
2022-12-23T05:22:51.686Z,9.60
2022-12-23T05:25:38.224Z,9.60
2022-12-23T05:28:23.634Z,9.50
2022-12-23T05:31:10.369Z,9.50
2022-12-23T05:33:58.390Z,9.50
2022-12-23T05:36:46.320Z,9.50
2022-12-23T05:39:31.646Z,9.50
2022-12-23T05:42:19.416Z,9.50
2022-12-23T05:45:05.290Z,9.60
2022-12-23T05:47:50.217Z,9.60
2022-12-23T05:50:35.787Z,9.60
2022-12-23T05:53:21.854Z,9.50
2022-12-23T05:56:07.563Z,9.50
2022-12-23T05:58:52.937Z,9.60
2022-12-23T06:01:38.328Z,9.60
2022-12-23T06:04:23.555Z,9.50
2022-12-23T06:07:09.715Z,9.50
2022-12-23T06:09:54.798Z,9.50
2022-12-23T06:12:40.311Z,9.50
2022-12-23T06:15:25.741Z,9.60
2022-12-23T06:18:11.092Z,9.50
2022-12-23T06:20:56.383Z,9.50
2022-12-23T06:23:41.636Z,9.60
2022-12-23T06:26:26.856Z,9.50
2022-12-23T06:29:12.228Z,9.50
2022-12-23T06:31:57.692Z,9.50
2022-12-23T06:34:42.980Z,9.40
2022-12-23T06:37:28.327Z,9.60
2022-12-23T06:40:14.012Z,9.50
2022-12-23T06:42:59.342Z,9.60
2022-12-23T06:45:48.602Z,9.60
2022-12-23T06:48:34.081Z,9.60
2022-12-23T06:51:19.544Z,9.60
2022-12-23T06:54:05.095Z,9.40
2022-12-23T06:56:50.345Z,9.50
2022-12-23T06:59:35.584Z,9.40
2022-12-23T07:02:21.109Z,9.40
2022-12-23T07:05:06.442Z,9.40
2022-12-23T07:07:51.933Z,9.40
2022-12-23T07:10:37.632Z,9.40
2022-12-23T07:13:22.753Z,9.40
2022-12-23T07:16:09.193Z,9.40
2022-12-23T07:18:54.509Z,9.50
2022-12-23T07:21:40.044Z,9.50
2022-12-23T07:24:25.272Z,9.50
2022-12-23T07:27:10.655Z,9.50
2022-12-23T07:29:56.084Z,9.60
2022-12-23T07:32:41.698Z,9.70
2022-12-23T07:35:27.211Z,9.70
2022-12-23T07:38:12.468Z,9.60
2022-12-23T07:40:57.923Z,9.70
2022-12-23T07:43:43.271Z,9.70
2022-12-23T07:46:28.885Z,9.70
2022-12-23T07:49:14.187Z,9.70
2022-12-23T07:51:59.540Z,9.80
2022-12-23T07:54:44.945Z,9.80
2022-12-23T07:57:30.207Z,9.80
2022-12-23T08:00:16.613Z,9.80
2022-12-23T08:03:02.107Z,9.80
2022-12-23T08:05:47.213Z,9.90
2022-12-23T08:08:33.724Z,9.80
2022-12-23T08:11:18.918Z,9.80
2022-12-23T08:14:04.376Z,9.80
2022-12-23T08:16:49.669Z,9.80
2022-12-23T08:19:34.842Z,9.80
2022-12-23T08:22:20.208Z,9.70
2022-12-23T08:25:06.668Z,9.90
2022-12-23T08:27:51.969Z,10.00
2022-12-23T08:30:37.234Z,10.10
2022-12-23T08:33:22.607Z,10.00
2022-12-23T08:36:14.993Z,10.00
2022-12-23T08:39:06.500Z,9.90
2022-12-23T08:41:51.665Z,9.90
2022-12-23T08:44:37.009Z,10.00
2022-12-23T08:47:22.482Z,10.00
2022-12-23T08:50:08.221Z,10.10
2022-12-23T08:52:53.570Z,10.10
2022-12-23T08:55:46.601Z,10.00
2022-12-23T08:58:36.099Z,10.00
2022-12-23T09:01:24.465Z,10.00
2022-12-23T09:04:09.942Z,10.00
2022-12-23T09:06:55.428Z,10.00
2022-12-23T09:09:40.732Z,10.00
2022-12-23T09:12:26.044Z,9.90
2022-12-23T09:15:11.472Z,10.00
2022-12-23T09:17:56.829Z,10.00
2022-12-23T09:20:42.431Z,10.00
2022-12-23T09:23:28.335Z,10.00
2022-12-23T09:26:19.776Z,10.10
2022-12-23T09:29:04.860Z,10.10
2022-12-23T09:31:50.190Z,10.10
2022-12-23T09:34:35.474Z,10.10
2022-12-23T09:37:21.016Z,10.20
2022-12-23T09:40:07.164Z,10.10
2022-12-23T09:43:31.209Z,10.00
2022-12-23T09:46:27.069Z,10.10
2022-12-23T09:49:14.704Z,10.20
2022-12-23T09:52:03.784Z,10.30
2022-12-23T09:54:52.621Z,10.30
2022-12-23T09:57:51.490Z,10.20
2022-12-23T10:00:47.017Z,10.10
2022-12-23T10:03:51.603Z,10.10
2022-12-23T10:06:38.630Z,10.10
2022-12-23T10:09:24.000Z,10.10
2022-12-23T10:12:40.010Z,10.10
2022-12-23T10:15:32.034Z,10.10
2022-12-23T10:18:31.662Z,10.20
2022-12-23T10:21:29.776Z,10.40
2022-12-23T10:24:41.442Z,10.30
2022-12-23T10:27:34.102Z,10.40
2022-12-23T10:33:49.583Z,10.50
2022-12-23T10:37:00.615Z,10.30
2022-12-23T10:40:03.589Z,10.40
2022-12-23T10:43:34.916Z,10.30
2022-12-23T10:46:33.523Z,10.20
2022-12-23T10:49:47.009Z,10.10
2022-12-23T10:52:37.166Z,10.20
2022-12-23T10:55:33.198Z,10.20
2022-12-23T10:58:21.062Z,10.10
2022-12-23T11:01:15.026Z,10.10
2022-12-23T11:04:05.863Z,10.10
2022-12-23T11:07:18.371Z,10.00
2022-12-23T11:10:03.617Z,10.10
2022-12-23T11:12:51.911Z,10.20
2022-12-23T11:15:40.854Z,10.20
2022-12-23T11:18:26.823Z,10.20
2022-12-23T11:21:14.643Z,10.30
2022-12-23T11:24:16.609Z,10.20
2022-12-23T11:27:05.875Z,10.30
2022-12-23T11:29:54.747Z,10.30
2022-12-23T11:32:42.713Z,10.20
2022-12-23T11:35:33.317Z,10.10
2022-12-23T11:38:18.550Z,10.00
2022-12-23T11:41:05.238Z,10.00
2022-12-23T11:44:04.866Z,10.20
2022-12-23T11:46:50.515Z,10.20
2022-12-23T11:49:49.484Z,10.20
2022-12-23T11:52:34.986Z,10.30
2022-12-23T11:55:25.910Z,10.40
2022-12-23T11:58:21.335Z,10.30
2022-12-23T12:01:14.804Z,10.20
2022-12-23T12:04:07.787Z,10.30
2022-12-23T12:06:56.627Z,10.20
2022-12-23T12:09:43.631Z,10.30
2022-12-23T12:12:30.096Z,10.30
2022-12-23T12:15:33.667Z,9.80
2022-12-23T12:18:20.528Z,10.40
2022-12-23T12:21:10.623Z,10.50
2022-12-23T12:24:18.661Z,10.70
2022-12-23T12:27:07.260Z,10.60
2022-12-23T12:30:08.117Z,10.60
2022-12-23T12:33:05.064Z,10.60
2022-12-23T12:36:07.010Z,10.70
2022-12-23T12:38:54.417Z,10.60
2022-12-23T12:41:51.551Z,10.50
2022-12-23T12:44:52.401Z,10.40
2022-12-23T12:47:54.956Z,10.30
2022-12-23T12:50:52.304Z,10.40
2022-12-23T12:53:46.117Z,10.30
2022-12-23T12:56:40.992Z,10.40
2022-12-23T12:59:35.434Z,10.30
2022-12-23T13:02:35.873Z,10.50
2022-12-23T13:06:24.847Z,10.40
2022-12-23T13:09:34.419Z,10.40
2022-12-23T13:12:25.011Z,10.50
2022-12-23T13:15:27.566Z,10.60
2022-12-23T13:18:43.279Z,10.50
2022-12-23T13:21:38.154Z,10.50
2022-12-23T13:24:51.371Z,10.40
2022-12-23T13:28:01.703Z,10.60
2022-12-23T13:30:58.369Z,10.60
2022-12-23T13:34:16.275Z,10.50
2022-12-23T13:37:04.055Z,10.50
2022-12-23T13:40:05.451Z,10.40
2022-12-23T13:42:58.748Z,10.50
2022-12-23T13:45:45.791Z,10.60
2022-12-23T13:48:54.898Z,10.60
2022-12-23T13:52:06.015Z,10.60
2022-12-23T13:54:56.803Z,10.60
2022-12-23T13:57:47.977Z,10.60
2022-12-23T14:00:34.539Z,10.60
2022-12-23T14:03:24.080Z,10.70
2022-12-23T14:06:24.427Z,10.70
2022-12-23T14:09:14.872Z,10.70
2022-12-23T14:12:25.270Z,10.60
2022-12-23T14:15:23.479Z,10.60
2022-12-23T14:18:17.013Z,10.50
2022-12-23T14:21:05.202Z,10.50
2022-12-23T14:24:26.125Z,10.50
2022-12-23T14:27:33.595Z,10.60
2022-12-23T14:30:22.705Z,10.50
2022-12-23T14:33:18.320Z,10.50
2022-12-23T14:36:21.475Z,10.50
2022-12-23T14:39:12.631Z,10.50
2022-12-23T14:42:05.165Z,10.50
2022-12-23T14:44:52.588Z,10.50
2022-12-23T14:47:40.458Z,10.50
2022-12-23T14:50:42.960Z,10.40
2022-12-23T14:53:30.607Z,10.40
2022-12-23T14:56:16.805Z,10.40
2022-12-23T14:59:33.405Z,10.40
2022-12-23T15:02:25.458Z,10.30
2022-12-23T15:05:10.615Z,10.30
2022-12-23T15:07:56.958Z,10.30
2022-12-23T15:10:45.006Z,10.30
2022-12-23T15:13:31.810Z,10.30
2022-12-23T15:16:18.791Z,10.40
2022-12-23T15:19:33.584Z,10.40
2022-12-23T15:22:25.322Z,10.30
2022-12-23T15:25:28.568Z,10.30
2022-12-23T15:28:23.700Z,10.40
2022-12-23T15:31:32.885Z,10.30
2022-12-23T15:34:24.498Z,10.30
2022-12-23T15:37:15.253Z,10.40
2022-12-23T15:40:09.924Z,10.30
2022-12-23T15:42:58.393Z,10.40
2022-12-23T15:45:43.744Z,10.30
2022-12-23T15:48:31.769Z,10.20
2022-12-23T15:52:05.303Z,10.20
2022-12-23T15:54:39.904Z,10.00
2022-12-23T15:57:28.094Z,10.10
2022-12-23T16:00:26.348Z,10.20
2022-12-23T16:03:31.786Z,10.30
2022-12-23T16:06:17.165Z,10.30
2022-12-23T16:09:06.303Z,10.30
2022-12-23T16:11:53.533Z,10.40
2022-12-23T16:14:42.171Z,10.40
2022-12-23T16:17:35.348Z,10.40
2022-12-23T16:20:27.021Z,10.40
2022-12-23T16:23:12.895Z,10.40
2022-12-23T16:26:00.442Z,10.30
2022-12-23T16:28:51.413Z,10.30
2022-12-23T16:31:37.864Z,10.40
2022-12-23T16:34:23.339Z,10.40
2022-12-23T16:37:09.014Z,10.40
2022-12-23T16:39:55.756Z,10.30
2022-12-23T16:42:40.931Z,10.10
2022-12-23T16:45:27.069Z,10.00
2022-12-23T16:48:27.195Z,10.10
2022-12-23T16:51:14.642Z,10.10
2022-12-23T16:54:00.744Z,10.00
2022-12-23T16:56:50.192Z,9.90
2022-12-23T16:59:35.811Z,9.90
2022-12-23T17:02:24.044Z,10.10
2022-12-23T17:05:16.233Z,10.10
2022-12-23T17:08:01.196Z,10.10
2022-12-23T17:10:46.878Z,10.00
2022-12-23T17:13:31.955Z,9.90
2022-12-23T17:16:20.772Z,10.00
2022-12-23T17:19:06.151Z,10.00
2022-12-23T17:21:57.877Z,9.90
2022-12-23T17:24:43.271Z,9.80
2022-12-23T17:27:28.598Z,9.90
2022-12-23T17:30:16.603Z,9.80
2022-12-23T17:33:01.846Z,9.90
2022-12-23T17:35:48.048Z,10.00
2022-12-23T17:38:33.652Z,9.90
2022-12-23T17:41:28.923Z,9.90
2022-12-23T17:44:15.689Z,10.00
2022-12-23T17:47:01.401Z,10.00
2022-12-23T17:49:47.790Z,10.00
2022-12-23T17:52:33.153Z,10.00
2022-12-23T17:55:20.352Z,10.00
2022-12-23T17:58:05.540Z,10.10
2022-12-23T18:00:50.879Z,10.10
2022-12-23T18:03:36.318Z,10.20
2022-12-23T18:06:23.160Z,10.20
2022-12-23T18:09:08.103Z,10.40
2022-12-23T18:11:53.748Z,10.50
2022-12-23T18:14:38.842Z,10.60
2022-12-23T18:17:24.229Z,10.60
2022-12-23T18:20:15.979Z,10.50
2022-12-23T18:23:01.740Z,10.50
2022-12-23T18:25:47.312Z,10.60
2022-12-23T18:28:32.748Z,10.50
2022-12-23T18:31:24.251Z,10.60
2022-12-23T18:34:17.075Z,10.60
2022-12-23T18:37:02.395Z,10.60
2022-12-23T18:39:48.049Z,10.70
2022-12-23T18:42:33.753Z,10.80
2022-12-23T18:45:37.658Z,10.80
2022-12-23T18:48:22.833Z,10.80
2022-12-23T18:51:13.526Z,10.90
2022-12-23T18:53:58.681Z,10.90
2022-12-23T18:56:45.017Z,10.90
2022-12-23T18:59:32.766Z,11.00
2022-12-23T19:02:18.118Z,11.00
2022-12-23T19:05:03.637Z,11.00
2022-12-23T19:07:49.692Z,11.00
2022-12-23T19:10:34.876Z,11.00
2022-12-23T19:13:20.508Z,11.00
2022-12-23T19:16:05.920Z,11.10
2022-12-23T19:18:51.514Z,11.00
2022-12-23T19:21:37.903Z,11.00
2022-12-23T19:24:23.190Z,11.10
2022-12-23T19:27:08.624Z,11.10
2022-12-23T19:29:53.912Z,11.20
2022-12-23T19:32:39.508Z,11.20
2022-12-23T19:35:24.570Z,11.30
2022-12-23T19:38:10.948Z,11.10
2022-12-23T19:40:57.745Z,11.20
2022-12-23T19:43:44.513Z,11.30
2022-12-23T19:46:30.186Z,11.30
2022-12-23T19:49:19.856Z,11.40
2022-12-23T19:52:05.484Z,11.30
2022-12-23T19:54:52.249Z,11.30
2022-12-23T19:57:37.554Z,11.30
2022-12-23T20:00:22.862Z,11.40
2022-12-23T20:03:08.208Z,11.40
2022-12-23T20:05:53.340Z,11.40
2022-12-23T20:08:38.807Z,11.40
2022-12-23T20:11:26.178Z,11.40
2022-12-23T20:14:11.585Z,11.40
2022-12-23T20:16:56.740Z,11.50
2022-12-23T20:19:46.205Z,11.50
2022-12-23T20:22:31.632Z,11.50
2022-12-23T20:25:17.126Z,11.50
2022-12-23T20:28:02.339Z,11.40
2022-12-23T20:30:48.447Z,11.50
2022-12-23T20:33:38.129Z,11.50
2022-12-23T20:36:26.195Z,11.50
2022-12-23T20:39:11.581Z,11.50
2022-12-23T20:41:57.412Z,11.50
2022-12-23T20:44:42.656Z,11.40
2022-12-23T20:47:28.196Z,11.40
2022-12-23T20:50:13.466Z,11.40
2022-12-23T20:52:58.746Z,11.60
2022-12-23T20:55:44.243Z,11.50
2022-12-23T20:58:48.124Z,11.50
2022-12-23T21:01:36.247Z,11.60
2022-12-23T21:04:22.361Z,11.50
2022-12-23T21:07:08.036Z,11.50
2022-12-23T21:09:53.129Z,11.50
2022-12-23T21:12:38.708Z,11.50
2022-12-23T21:15:24.176Z,11.50
2022-12-23T21:18:09.129Z,11.50
2022-12-23T21:21:01.630Z,11.40
2022-12-23T21:23:46.906Z,11.50
2022-12-23T21:26:33.827Z,11.40
2022-12-23T21:29:19.911Z,11.30
2022-12-23T21:32:04.943Z,11.20
2022-12-23T21:34:50.412Z,11.30
2022-12-23T21:37:35.852Z,11.30
2022-12-23T21:40:21.133Z,11.30
2022-12-23T21:43:08.793Z,11.30
2022-12-23T21:45:59.964Z,11.30
2022-12-23T21:48:44.906Z,11.30
2022-12-23T21:51:39.715Z,11.30
2022-12-23T21:54:26.107Z,11.20
2022-12-23T21:57:11.563Z,11.20
2022-12-23T21:59:56.841Z,11.20
2022-12-23T22:02:42.324Z,11.20
2022-12-23T22:05:27.747Z,11.20
2022-12-23T22:08:13.166Z,11.20
2022-12-23T22:10:58.664Z,11.20
2022-12-23T22:13:45.480Z,11.20
2022-12-23T22:16:31.794Z,11.20
2022-12-23T22:19:17.040Z,11.20
2022-12-23T22:22:02.303Z,11.20
2022-12-23T22:24:47.741Z,11.20
2022-12-23T22:27:33.027Z,11.20
2022-12-23T22:30:18.434Z,11.20
2022-12-23T22:33:03.815Z,11.10
2022-12-23T22:35:56.177Z,11.10
2022-12-23T22:38:41.993Z,11.20
2022-12-23T22:41:29.816Z,11.20
2022-12-23T22:44:15.261Z,11.20
2022-12-23T22:47:00.861Z,11.20
2022-12-23T22:49:46.287Z,11.10
2022-12-23T22:52:31.561Z,11.10
2022-12-23T22:55:16.980Z,11.10
2022-12-23T22:58:02.405Z,11.20
2022-12-23T23:00:47.686Z,11.10
2022-12-23T23:03:33.602Z,11.20
2022-12-23T23:06:19.058Z,11.10
2022-12-23T23:09:09.969Z,11.00
2022-12-23T23:11:55.027Z,11.00
2022-12-23T23:14:52.408Z,11.00
2022-12-23T23:17:37.697Z,11.00
2022-12-23T23:20:22.702Z,11.00
2022-12-23T23:23:08.113Z,10.90
2022-12-23T23:25:53.539Z,10.90
2022-12-23T23:28:39.589Z,10.90
2022-12-23T23:31:41.710Z,11.00
2022-12-23T23:34:28.137Z,10.90
2022-12-23T23:37:15.541Z,10.90
2022-12-23T23:40:00.918Z,11.00
2022-12-23T23:42:46.129Z,10.90
2022-12-23T23:45:31.487Z,10.90
2022-12-23T23:48:17.468Z,10.80
2022-12-23T23:51:05.887Z,10.80
2022-12-23T23:53:51.218Z,10.90
2022-12-23T23:56:39.215Z,10.90
2022-12-23T23:59:24.780Z,10.90
